createdAt,value
2018-06-16T00:01:19.840Z,4.10
2018-06-16T00:03:47.778Z,3.97
2018-06-16T00:06:15.812Z,4.27
2018-06-16T00:08:43.896Z,3.43
2018-06-16T00:11:11.871Z,3.73
2018-06-16T00:13:39.869Z,4.10
2018-06-16T00:16:07.984Z,3.90
2018-06-16T00:18:35.937Z,4.33
2018-06-16T00:21:04.024Z,3.63
2018-06-16T00:23:32.034Z,3.30
2018-06-16T00:26:00.114Z,3.93
2018-06-16T00:28:28.178Z,3.07
2018-06-16T00:30:56.595Z,4.10
2018-06-16T00:33:25.020Z,4.13
2018-06-16T00:35:53.053Z,3.47
2018-06-16T00:38:21.053Z,3.70
2018-06-16T00:40:49.176Z,4.13
2018-06-16T00:43:17.189Z,3.37
2018-06-16T00:45:45.285Z,3.70
2018-06-16T00:48:13.275Z,3.50
2018-06-16T00:50:41.345Z,3.53
2018-06-16T00:53:09.389Z,3.97
2018-06-16T00:55:37.470Z,3.20
2018-06-16T00:58:05.453Z,4.37
2018-06-16T01:00:33.468Z,4.00
2018-06-16T01:03:02.413Z,3.00
2018-06-16T01:05:30.439Z,3.90
2018-06-16T01:07:58.586Z,3.33
2018-06-16T01:10:26.730Z,3.73
2018-06-16T01:12:54.700Z,4.30
2018-06-16T01:15:22.669Z,3.63
2018-06-16T01:17:50.752Z,3.70
2018-06-16T01:20:18.768Z,4.27
2018-06-16T01:22:46.747Z,4.47
2018-06-16T01:25:14.828Z,3.10
2018-06-16T01:27:42.888Z,3.60
2018-06-16T01:30:10.911Z,3.83
2018-06-16T01:32:38.978Z,3.97
2018-06-16T01:35:07.080Z,3.73
2018-06-16T01:37:35.253Z,4.10
2018-06-16T01:40:03.395Z,4.87
2018-06-16T01:42:31.509Z,4.00
2018-06-16T01:44:59.584Z,4.47
2018-06-16T01:47:27.684Z,3.20
2018-06-16T01:49:55.799Z,3.33
2018-06-16T01:52:23.920Z,4.37
2018-06-16T01:54:51.887Z,4.00
2018-06-16T01:57:19.971Z,3.70
2018-06-16T01:59:47.983Z,3.77
2018-06-16T02:02:15.994Z,3.73
2018-06-16T02:04:44.069Z,3.80
2018-06-16T02:07:12.139Z,3.73
2018-06-16T02:09:40.207Z,3.87
2018-06-16T02:12:08.219Z,3.40
2018-06-16T02:14:36.249Z,3.73
2018-06-16T02:17:05.624Z,3.93
2018-06-16T02:19:33.619Z,4.10
2018-06-16T02:22:01.631Z,3.67
2018-06-16T02:24:29.733Z,3.47
2018-06-16T02:26:57.840Z,3.53
2018-06-16T02:29:25.968Z,3.93
2018-06-16T02:31:54.000Z,4.07
2018-06-16T02:34:22.030Z,4.33
2018-06-16T02:36:50.047Z,3.60
2018-06-16T02:39:18.047Z,3.50
2018-06-16T02:41:46.085Z,3.60
2018-06-16T02:44:14.088Z,3.50
2018-06-16T02:46:42.148Z,3.37
2018-06-16T02:49:10.187Z,3.37
2018-06-16T02:51:38.252Z,3.83
2018-06-16T02:54:06.338Z,3.63
2018-06-16T02:56:34.548Z,3.43
2018-06-16T02:59:02.571Z,3.70
2018-06-16T03:01:30.609Z,3.37
2018-06-16T03:03:58.692Z,3.20
2018-06-16T03:06:26.806Z,4.07
2018-06-16T03:08:54.816Z,4.00
2018-06-16T03:11:22.812Z,3.07
2018-06-16T03:13:50.837Z,3.90
2018-06-16T03:16:18.925Z,3.87
2018-06-16T03:18:46.955Z,3.30
2018-06-16T03:21:15.016Z,3.97
2018-06-16T03:23:43.113Z,3.43
2018-06-16T03:26:11.256Z,3.37
2018-06-16T03:28:39.259Z,3.70
2018-06-16T03:31:07.432Z,3.83
2018-06-16T03:33:35.417Z,3.10
2018-06-16T03:36:03.558Z,3.90
2018-06-16T03:38:31.760Z,3.57
2018-06-16T03:40:59.822Z,4.63
2018-06-16T03:43:27.954Z,3.50
2018-06-16T03:45:57.429Z,3.90
2018-06-16T03:48:25.619Z,3.93
2018-06-16T03:50:53.761Z,3.50
2018-06-16T03:53:21.853Z,3.87
2018-06-16T03:55:49.896Z,3.70
2018-06-16T03:58:17.911Z,3.90
2018-06-16T04:00:45.993Z,4.00
2018-06-16T04:03:14.156Z,4.10
2018-06-16T04:05:42.420Z,3.70
2018-06-16T04:08:10.569Z,3.90
2018-06-16T04:10:38.627Z,3.20
2018-06-16T04:13:06.728Z,3.40
2018-06-16T04:15:34.889Z,3.93
2018-06-16T04:18:02.987Z,4.13
2018-06-16T04:20:31.016Z,4.03
2018-06-16T04:22:59.013Z,3.90
2018-06-16T04:25:26.972Z,3.37
2018-06-16T04:27:55.148Z,4.03
2018-06-16T04:30:23.188Z,3.83
2018-06-16T04:32:51.251Z,4.80
2018-06-16T04:35:19.414Z,3.70
2018-06-16T04:37:47.568Z,3.93
2018-06-16T04:40:15.722Z,3.50
2018-06-16T04:42:43.970Z,3.40
2018-06-16T04:45:12.048Z,4.37
2018-06-16T04:47:40.393Z,3.43
2018-06-16T04:50:08.420Z,3.73
2018-06-16T04:52:36.601Z,3.83
2018-06-16T04:55:04.868Z,3.80
2018-06-16T04:57:33.129Z,3.70
2018-06-16T05:00:01.262Z,3.80
2018-06-16T05:02:29.679Z,3.33
2018-06-16T05:04:59.050Z,3.43
2018-06-16T05:07:27.293Z,4.33
2018-06-16T05:09:55.494Z,3.80
2018-06-16T05:12:23.696Z,3.83
2018-06-16T05:14:51.962Z,4.20
2018-06-16T05:17:20.376Z,4.07
2018-06-16T05:19:48.617Z,4.00
2018-06-16T05:22:16.861Z,4.90
2018-06-16T05:24:45.001Z,3.57
2018-06-16T05:27:13.528Z,4.13
2018-06-16T05:29:41.914Z,3.97
2018-06-16T05:32:10.190Z,3.83
2018-06-16T05:34:38.412Z,4.20
2018-06-16T05:37:07.896Z,4.50
2018-06-16T05:39:36.329Z,4.23
2018-06-16T05:42:04.741Z,4.43
2018-06-16T05:44:32.883Z,4.70
2018-06-16T05:47:01.632Z,4.57
2018-06-16T05:49:29.906Z,4.47
2018-06-16T05:51:58.071Z,4.30
2018-06-16T05:54:26.261Z,4.07
2018-06-16T05:56:54.679Z,5.17
2018-06-16T05:59:23.392Z,4.63
2018-06-16T06:01:51.632Z,4.20
2018-06-16T06:04:19.916Z,3.87
2018-06-16T06:06:48.152Z,4.07
2018-06-16T06:09:16.382Z,3.67
2018-06-16T06:11:44.627Z,3.53
2018-06-16T06:14:12.923Z,4.03
2018-06-16T06:16:41.180Z,4.80
2018-06-16T06:19:09.340Z,3.97
2018-06-16T06:21:37.534Z,4.93
2018-06-16T06:24:06.184Z,4.37
2018-06-16T06:26:34.390Z,5.00
2018-06-16T06:29:02.528Z,4.97
2018-06-16T06:31:30.755Z,4.90
2018-06-16T06:33:58.943Z,5.23
2018-06-16T06:36:27.261Z,4.57
2018-06-16T06:38:55.556Z,5.40
2018-06-16T06:41:23.892Z,6.17
2018-06-16T06:43:53.080Z,6.40
2018-06-16T06:46:22.404Z,5.63
2018-06-16T06:48:50.533Z,5.97
2018-06-16T06:51:19.015Z,5.43
2018-06-16T06:53:47.281Z,6.10
2018-06-16T06:56:17.015Z,6.40
2018-06-16T06:58:45.126Z,5.57
2018-06-16T07:01:13.384Z,7.03
2018-06-16T07:03:41.675Z,6.83
2018-06-16T07:06:11.933Z,6.97
2018-06-16T07:08:40.544Z,6.37
2018-06-16T07:11:08.784Z,7.43
2018-06-16T07:13:37.670Z,7.50
2018-06-16T07:16:08.355Z,7.20
2018-06-16T07:18:36.483Z,6.20
2018-06-16T07:21:04.894Z,6.60
2018-06-16T07:23:33.219Z,7.37
2018-06-16T07:26:01.767Z,6.93
2018-06-16T07:28:30.288Z,7.63
2018-06-16T07:30:58.450Z,7.70
2018-06-16T07:33:26.776Z,7.60
2018-06-16T07:35:55.083Z,7.07
2018-06-16T07:38:23.483Z,9.27
2018-06-16T07:40:52.047Z,7.63
2018-06-16T07:43:20.704Z,10.23
2018-06-16T07:45:49.760Z,9.13
2018-06-16T07:48:27.521Z,8.00
2018-06-16T07:50:55.938Z,10.67
2018-06-16T07:53:24.303Z,10.00
2018-06-16T07:55:52.578Z,10.13
2018-06-16T07:58:20.832Z,8.93
2018-06-16T08:00:49.608Z,9.63
2018-06-16T08:03:17.884Z,10.27
2018-06-16T08:05:46.556Z,10.10
2018-06-16T08:08:16.112Z,11.07
2018-06-16T08:10:44.862Z,10.13
2018-06-16T08:13:13.219Z,10.50
2018-06-16T08:15:41.715Z,11.00
2018-06-16T08:18:10.035Z,10.50
2018-06-16T08:20:38.704Z,10.47
2018-06-16T08:23:07.392Z,12.03
2018-06-16T08:25:36.684Z,10.20
2018-06-16T08:28:05.524Z,9.67
2018-06-16T08:30:33.762Z,9.20
2018-06-16T08:33:02.512Z,9.80
2018-06-16T08:35:31.726Z,10.30
2018-06-16T08:38:00.419Z,9.03
2018-06-16T08:40:28.933Z,8.57
2018-06-16T08:42:57.492Z,10.40
2018-06-16T08:45:25.982Z,10.57
2018-06-16T08:47:54.501Z,11.00
2018-06-16T08:50:22.884Z,10.33
2018-06-16T08:52:51.366Z,10.47
2018-06-16T08:55:19.724Z,10.93
2018-06-16T08:57:48.320Z,10.97
2018-06-16T09:00:17.695Z,11.27
2018-06-16T09:02:46.140Z,11.47
2018-06-16T09:05:14.404Z,10.13
2018-06-16T09:07:43.826Z,10.27
2018-06-16T09:10:11.993Z,10.10
2018-06-16T09:12:40.795Z,10.90
2018-06-16T09:15:09.139Z,10.03
2018-06-16T09:17:39.651Z,10.90
2018-06-16T09:20:07.906Z,14.80
2018-06-16T09:22:36.989Z,10.93
2018-06-16T09:25:05.092Z,10.50
2018-06-16T09:27:33.343Z,11.00
2018-06-16T09:30:01.441Z,9.90
2018-06-16T09:32:30.391Z,10.27
2018-06-16T09:34:58.964Z,10.87
2018-06-16T09:37:30.275Z,9.70
2018-06-16T09:39:58.439Z,9.50
2018-06-16T09:42:26.799Z,11.43
2018-06-16T09:44:55.586Z,9.37
2018-06-16T09:47:24.055Z,9.10
2018-06-16T09:49:52.441Z,8.60
2018-06-16T09:52:20.952Z,9.17
2018-06-16T09:54:50.356Z,9.50
2018-06-16T09:57:18.834Z,11.47
2018-06-16T09:59:47.323Z,10.10
2018-06-16T10:02:15.702Z,9.50
2018-06-16T10:04:43.974Z,10.37
2018-06-16T10:07:13.548Z,8.60
2018-06-16T10:09:41.986Z,9.57
2018-06-16T10:12:10.772Z,8.83
2018-06-16T10:14:39.147Z,10.97
2018-06-16T10:17:08.616Z,9.93
2018-06-16T10:19:37.130Z,10.60
2018-06-16T10:22:05.565Z,27.67
2018-06-16T10:24:33.889Z,9.90
2018-06-16T10:27:02.510Z,8.93
2018-06-16T10:29:30.841Z,10.03
2018-06-16T10:31:59.097Z,9.00
2018-06-16T10:34:27.983Z,11.37
2018-06-16T10:36:56.999Z,8.83
2018-06-16T10:39:25.626Z,8.97
2018-06-16T10:41:53.918Z,9.07
2018-06-16T10:44:22.270Z,10.17
2018-06-16T10:46:51.909Z,10.10
2018-06-16T10:49:20.909Z,10.77
2018-06-16T10:51:49.694Z,9.87
2018-06-16T10:54:18.161Z,13.90
2018-06-16T10:56:46.973Z,62.47
2018-06-16T10:59:15.658Z,18.27
2018-06-16T11:01:44.484Z,55.23
2018-06-16T11:04:12.897Z,36.00
2018-06-16T11:06:41.412Z,42.43
2018-06-16T11:09:10.765Z,10.58
2018-06-16T11:11:40.985Z,11.13
2018-06-16T11:14:09.928Z,9.63
2018-06-16T11:16:38.959Z,9.00
2018-06-16T11:19:08.046Z,9.17
2018-06-16T11:21:37.020Z,8.67
2018-06-16T11:24:05.777Z,8.77
2018-06-16T11:26:34.487Z,9.97
2018-06-16T11:29:03.049Z,9.10
2018-06-16T11:31:31.544Z,10.33
2018-06-16T11:34:00.344Z,9.47
2018-06-16T11:36:29.455Z,9.10
2018-06-16T11:38:58.718Z,9.43
2018-06-16T11:41:28.040Z,10.13
2018-06-16T11:43:57.578Z,9.20
2018-06-16T11:46:26.297Z,9.10
2018-06-16T11:48:56.471Z,9.63
2018-06-16T11:51:26.019Z,12.03
2018-06-16T11:53:55.872Z,9.77
2018-06-16T11:56:25.444Z,9.90
2018-06-16T11:58:56.016Z,9.90
2018-06-16T12:01:27.102Z,10.00
2018-06-16T12:03:57.418Z,10.50
2018-06-16T12:06:27.791Z,8.80
2018-06-16T12:08:57.716Z,6.80
2018-06-16T12:11:27.223Z,6.67
2018-06-16T12:13:56.475Z,8.77
2018-06-16T12:16:25.730Z,8.27
2018-06-16T12:18:54.994Z,8.63
2018-06-16T12:21:25.394Z,8.90
2018-06-16T12:23:54.172Z,8.93
2018-06-16T12:26:25.452Z,8.13
2018-06-16T12:28:55.093Z,7.97
2018-06-16T12:31:24.698Z,7.63
2018-06-16T12:33:55.178Z,7.20
2018-06-16T12:36:24.605Z,15.27
2018-06-16T12:38:55.006Z,8.50
2018-06-16T12:41:24.861Z,7.43
2018-06-16T12:43:54.047Z,7.63
2018-06-16T12:46:23.952Z,7.30
2018-06-16T12:48:53.435Z,6.77
2018-06-16T12:51:23.076Z,5.70
2018-06-16T12:53:53.443Z,6.67
2018-06-16T12:56:22.820Z,6.80
2018-06-16T12:58:51.877Z,6.20
2018-06-16T13:01:23.156Z,6.87
2018-06-16T13:03:52.721Z,6.10
2018-06-16T13:06:21.322Z,6.10
2018-06-16T13:08:50.338Z,6.27
2018-06-16T13:11:19.274Z,6.77
2018-06-16T13:13:48.190Z,6.97
2018-06-16T13:16:17.191Z,7.73
2018-06-16T13:18:49.252Z,7.20
2018-06-16T13:21:23.417Z,7.13
2018-06-16T13:23:55.497Z,7.00
2018-06-16T13:26:33.113Z,6.47
2018-06-16T13:29:03.053Z,7.60
2018-06-16T13:31:35.886Z,9.23
2018-06-16T13:34:09.165Z,7.30
2018-06-16T13:36:38.017Z,6.47
2018-06-16T13:39:11.327Z,6.93
2018-06-16T13:41:41.354Z,7.43
2018-06-16T13:44:13.991Z,8.37
2018-06-16T13:46:47.173Z,7.87
2018-06-16T13:49:18.099Z,7.07
2018-06-16T13:51:50.217Z,8.23
2018-06-16T13:54:24.174Z,6.53
2018-06-16T13:56:58.878Z,6.47
2018-06-16T13:59:29.704Z,7.07
2018-06-16T14:01:59.151Z,8.10
2018-06-16T14:04:28.564Z,7.03
2018-06-16T14:06:59.479Z,7.50
2018-06-16T14:09:34.196Z,8.53
2018-06-16T14:12:04.837Z,7.93
2018-06-16T14:14:39.057Z,8.07
2018-06-16T14:17:08.564Z,4.30
2018-06-16T14:19:38.816Z,4.63
2018-06-16T14:22:08.279Z,5.83
2018-06-16T14:24:37.302Z,4.50
2018-06-16T14:27:06.365Z,4.27
2018-06-16T14:29:35.215Z,4.00
2018-06-16T14:32:05.599Z,4.27
2018-06-16T14:34:37.525Z,2.83
2018-06-16T14:37:07.349Z,3.13
2018-06-16T14:39:36.915Z,2.80
2018-06-16T14:42:06.594Z,2.60
2018-06-16T14:44:35.688Z,2.93
2018-06-16T14:47:04.828Z,3.13
2018-06-16T14:49:34.530Z,2.90
2018-06-16T14:52:05.592Z,3.03
2018-06-16T14:54:35.609Z,2.17
2018-06-16T14:57:06.014Z,2.90
2018-06-16T14:59:37.044Z,3.50
2018-06-16T15:02:07.641Z,2.90
2018-06-16T15:04:36.514Z,3.07
2018-06-16T15:07:06.128Z,2.50
2018-06-16T15:09:35.088Z,2.53
2018-06-16T15:12:06.390Z,2.80
2018-06-16T15:14:36.154Z,2.70
2018-06-16T15:17:06.491Z,3.90
2018-06-16T15:19:35.707Z,2.80
2018-06-16T15:22:05.153Z,3.70
2018-06-16T15:24:34.450Z,3.23
2018-06-16T15:27:03.835Z,3.20
2018-06-16T15:29:33.478Z,3.90
2018-06-16T15:32:02.952Z,4.17
2018-06-16T15:34:32.422Z,3.57
2018-06-16T15:37:05.335Z,3.93
2018-06-16T15:39:34.992Z,4.27
2018-06-16T15:42:03.910Z,4.43
2018-06-16T15:44:32.503Z,4.87
2018-06-16T15:47:01.138Z,5.23
2018-06-16T15:49:31.321Z,4.07
2018-06-16T15:51:59.764Z,4.63
2018-06-16T15:54:28.513Z,4.73
2018-06-16T15:56:57.318Z,4.37
2018-06-16T15:59:26.565Z,4.20
2018-06-16T16:01:55.852Z,4.80
2018-06-16T16:04:25.353Z,4.30
2018-06-16T16:06:54.120Z,5.10
2018-06-16T16:09:23.073Z,5.43
2018-06-16T16:11:52.053Z,5.57
2018-06-16T16:14:21.694Z,5.00
2018-06-16T16:16:50.471Z,5.53
2018-06-16T16:19:18.942Z,5.87
2018-06-16T16:21:47.415Z,5.40
2018-06-16T16:24:15.900Z,5.30
2018-06-16T16:26:44.775Z,5.00
2018-06-16T16:29:13.244Z,6.50
2018-06-16T16:31:41.671Z,4.90
2018-06-16T16:34:10.620Z,5.90
2018-06-16T16:36:39.309Z,5.20
2018-06-16T16:39:09.361Z,5.73
2018-06-16T16:41:38.517Z,5.07
2018-06-16T16:44:07.473Z,5.77
2018-06-16T16:46:36.566Z,4.87
2018-06-16T16:49:05.112Z,5.93
2018-06-16T16:51:33.654Z,5.63
2018-06-16T16:54:02.170Z,4.63
2018-06-16T16:56:30.745Z,6.67
2018-06-16T16:58:59.259Z,4.90
2018-06-16T17:01:28.190Z,5.23
2018-06-16T17:03:56.582Z,5.97
2018-06-16T17:06:25.643Z,5.07
2018-06-16T17:08:54.134Z,5.53
2018-06-16T17:11:23.089Z,5.40
2018-06-16T17:13:51.677Z,5.60
2018-06-16T17:16:20.574Z,5.47
2018-06-16T17:18:49.280Z,5.60
2018-06-16T17:21:18.647Z,5.97
2018-06-16T17:23:50.832Z,5.87
2018-06-16T17:26:20.799Z,5.20
2018-06-16T17:28:50.657Z,5.33
2018-06-16T17:31:20.008Z,5.53
2018-06-16T17:33:49.457Z,5.53
2018-06-16T17:36:18.994Z,4.80
2018-06-16T17:38:48.225Z,4.93
2018-06-16T17:41:17.356Z,5.50
2018-06-16T17:43:49.572Z,5.17
2018-06-16T17:46:20.963Z,5.70
2018-06-16T17:48:51.994Z,5.37
2018-06-16T17:51:23.860Z,5.30
2018-06-16T17:53:55.386Z,5.30
2018-06-16T17:56:24.884Z,5.20
2018-06-16T17:58:55.807Z,4.07
2018-06-16T18:01:27.022Z,4.70
2018-06-16T18:03:59.755Z,6.57
2018-06-16T18:06:30.465Z,4.30
2018-06-16T18:09:00.571Z,4.23
2018-06-16T18:11:31.950Z,4.00
2018-06-16T18:14:02.520Z,3.73
2018-06-16T18:16:32.555Z,3.60
2018-06-16T18:19:02.476Z,4.27
2018-06-16T18:21:32.005Z,3.90
2018-06-16T18:24:02.849Z,3.97
2018-06-16T18:26:33.475Z,4.10
2018-06-16T18:29:05.039Z,3.77
2018-06-16T18:31:35.271Z,3.97
2018-06-16T18:34:05.182Z,3.20
2018-06-16T18:36:34.633Z,3.73
2018-06-16T18:39:06.639Z,3.60
2018-06-16T18:41:38.421Z,3.67
2018-06-16T18:44:09.749Z,3.80
2018-06-16T18:46:40.527Z,3.53
2018-06-16T18:49:12.262Z,3.90
2018-06-16T18:51:43.097Z,3.77
2018-06-16T18:54:15.856Z,3.60
2018-06-16T18:56:46.784Z,3.83
2018-06-16T18:59:18.896Z,4.37
2018-06-16T19:01:51.765Z,3.80
2018-06-16T19:04:23.712Z,3.20
2018-06-16T19:06:55.109Z,3.43
2018-06-16T19:09:26.841Z,4.27
2018-06-16T19:12:00.844Z,3.83
2018-06-16T19:14:31.519Z,3.40
2018-06-16T19:17:04.308Z,3.33
2018-06-16T19:19:33.907Z,3.10
2018-06-16T19:22:04.163Z,3.53
2018-06-16T19:24:33.504Z,3.73
2018-06-16T19:27:04.393Z,4.80
2018-06-16T19:29:33.921Z,4.07
2018-06-16T19:32:03.237Z,3.70
2018-06-16T19:34:32.512Z,3.80
2018-06-16T19:37:02.091Z,4.20
2018-06-16T19:39:32.358Z,3.87
2018-06-16T19:42:02.941Z,4.10
2018-06-16T19:44:33.904Z,5.03
2018-06-16T19:47:04.873Z,3.47
2018-06-16T19:49:36.702Z,6.03
2018-06-16T19:52:08.182Z,3.47
2018-06-16T19:54:39.431Z,3.23
2018-06-16T19:57:09.900Z,3.10
2018-06-16T19:59:39.878Z,4.30
2018-06-16T20:02:10.237Z,3.83
2018-06-16T20:04:41.145Z,3.53
2018-06-16T20:07:12.232Z,3.80
2018-06-16T20:09:41.779Z,3.40
2018-06-16T20:12:11.763Z,3.73
2018-06-16T20:14:41.422Z,4.33
2018-06-16T20:17:10.924Z,4.00
2018-06-16T20:19:40.211Z,4.30
2018-06-16T20:22:10.821Z,4.30
2018-06-16T20:24:40.523Z,3.90
2018-06-16T20:27:10.588Z,4.60
2018-06-16T20:29:41.079Z,3.97
2018-06-16T20:32:10.822Z,4.17
2018-06-16T20:34:40.505Z,4.20
2018-06-16T20:37:10.708Z,4.03
2018-06-16T20:39:39.527Z,3.80
2018-06-16T20:42:08.196Z,3.60
2018-06-16T20:44:36.927Z,4.07
2018-06-16T20:47:06.757Z,4.10
2018-06-16T20:49:37.276Z,4.37
2018-06-16T20:52:06.183Z,4.13
2018-06-16T20:54:35.534Z,4.20
2018-06-16T20:57:04.496Z,4.07
2018-06-16T20:59:33.644Z,3.70
2018-06-16T21:02:02.731Z,3.50
2018-06-16T21:04:31.533Z,3.47
2018-06-16T21:07:00.270Z,4.33
2018-06-16T21:09:28.999Z,4.33
2018-06-16T21:11:57.665Z,5.30
2018-06-16T21:14:26.341Z,4.07
2018-06-16T21:16:54.950Z,3.67
2018-06-16T21:19:23.561Z,3.17
2018-06-16T21:21:52.272Z,4.13
2018-06-16T21:24:20.972Z,3.50
2018-06-16T21:26:49.655Z,3.17
2018-06-16T21:29:19.475Z,3.17
2018-06-16T21:31:48.079Z,3.87
2018-06-16T21:34:16.708Z,3.13
2018-06-16T21:36:45.273Z,3.80
2018-06-16T21:39:15.366Z,3.57
2018-06-16T21:41:43.772Z,3.30
2018-06-16T21:44:11.926Z,4.07
2018-06-16T21:46:40.098Z,3.77
2018-06-16T21:49:08.231Z,4.23
2018-06-16T21:51:36.407Z,3.93
2018-06-16T21:54:04.573Z,3.37
2018-06-16T21:56:32.684Z,3.63
2018-06-16T21:59:01.126Z,3.23
2018-06-16T22:01:33.205Z,3.90
2018-06-16T22:04:01.829Z,3.50
2018-06-16T22:06:29.956Z,3.33
2018-06-16T22:08:58.133Z,3.60
2018-06-16T22:11:26.260Z,3.27
2018-06-16T22:13:54.365Z,3.40
2018-06-16T22:16:22.440Z,4.07
2018-06-16T22:18:50.653Z,3.57
2018-06-16T22:21:18.812Z,3.50
2018-06-16T22:23:46.913Z,3.40
2018-06-16T22:26:15.100Z,3.63
2018-06-16T22:28:43.316Z,3.47
2018-06-16T22:31:11.475Z,3.13
2018-06-16T22:33:39.568Z,3.70
2018-06-16T22:36:07.829Z,3.53
2018-06-16T22:38:36.114Z,4.13
2018-06-16T22:41:04.234Z,2.80
2018-06-16T22:43:32.288Z,4.43
2018-06-16T22:46:00.391Z,3.40
2018-06-16T22:48:28.535Z,3.73
2018-06-16T22:50:56.719Z,4.33
2018-06-16T22:53:24.934Z,3.40
2018-06-16T22:55:53.145Z,3.77
2018-06-16T22:58:21.367Z,3.33
2018-06-16T23:00:49.476Z,4.10
2018-06-16T23:03:17.584Z,3.53
2018-06-16T23:05:45.701Z,3.63
2018-06-16T23:08:13.885Z,3.43
2018-06-16T23:10:41.956Z,3.53
2018-06-16T23:13:10.132Z,3.83
2018-06-16T23:15:38.287Z,2.93
2018-06-16T23:18:06.618Z,4.13
2018-06-16T23:20:34.801Z,4.33
2018-06-16T23:23:02.857Z,4.30
2018-06-16T23:25:30.999Z,3.50
2018-06-16T23:27:59.115Z,4.13
2018-06-16T23:30:27.194Z,3.90
2018-06-16T23:32:55.351Z,3.93
2018-06-16T23:35:23.506Z,3.57
2018-06-16T23:37:51.629Z,3.97
2018-06-16T23:40:19.807Z,4.10
2018-06-16T23:42:47.883Z,4.07
2018-06-16T23:45:15.985Z,3.53
2018-06-16T23:47:44.164Z,4.07
2018-06-16T23:50:12.219Z,4.27
2018-06-16T23:52:40.290Z,3.60
2018-06-16T23:55:08.369Z,4.33
2018-06-16T23:57:36.520Z,3.50
